Aeroporto :
LOGIN :

Iscrizione | Disclaimer

   EN    FR    IT 

 










Sommario :    VFR   VFR Marginale   IFR   IFR Intensivo   IFR Molto Intensivo
Visibilità : 
Base nubi : 
>= 8 km
>= 3000ft
5 / 8 km
1000 / 3000 ft
1500m / 5 km
500 / 1000 ft
800 / 1500m
200 / 500 ft
< 800m
< 200 ft
Simboli :   Temporali  Nebbia  Neve Forte  Precipitazioni Forti  Vento > 20 kt
SIGMETs :   Varie  Temporali  Ghiacco  Turbolenza  Onda orograficha  Ceneri Vulcaniche







- Altitudine del aeroporto : 28 ft
- Codice IATA : SOZ
- Carte del aeroporto


LFKS - Solenzara

ULTIMO METAR :
  • 220230Z AUTO 28004KT 9999 SCT038 OVC072 06/02 Q1002

METARs OBSOLETI :
  • 220200Z AUTO 33004KT 290V350 9999 FEW031 OVC076 06/02 Q1002
  • 220130Z AUTO 34005KT 9999 FEW066 OVC076 06/02 Q1002
  • 220100Z AUTO VRB03KT 9999 BKN070 OVC080 06/02 Q1002
  • 220030Z AUTO 30003KT 280V340 9999 OVC070 07/02 Q1003
  • 220000Z AUTO 34004KT 9999 OVC070 07/02 Q1003

TAF TAF LFKS
Valido dal 21 a 15 ore il 22 a 15 ore UTC


211400Z 2115/2215 35015KT 9999 OVC045
BECMG 2116/2117 32005KT
TEMPO 2115/2215 35015G25KT -SHRA SCT020TCU
Nessun NOTAM noto per questo aeroporto.
3 SIGMETs conosciuti per la FIR Marseille (LFMM) :
 
Temporali affogati
LFMM SIGMET 9 VALID 220000/220400 LFPW
LFMM MARSEILLE FIR/UIR EMBD TS FCST WI N3930 E00430 - N4200 E00430 - N4200 E00415 - N4215 E00815 - N4130 E00945 - N4115 E00800 - N4000 E00800 - N3930 E00430 TOP FL230 STNR NC=
Turbolenza severa
LFMM SIGMET 11 VALID 220200/220600 LFPW
LFMM MARSEILLE FIR/UIR SEV TURB FCST WI N4215 E00245 - N4215 E00230 - N4630 E00300 - N4630 E00515 - N4215 E00245 FL170/250 STNR NC=
Turbolenza severa
LFMM SIGMET 10 VALID 220000/220400 LFPW
LFMM MARSEILLE FIR/UIR SEV TURB FCST WI N4200 E00400 - N4215 E00230 - N4300 E00230 - N4245 E00400 - N4200 E00400 SFC/FL050 STNR NC=



MetMap, La meteo Aeronautica in un colpo d'occhio ! - Copyright ORBIFLY Dicembre 2007 - Disclaimer

ORBIFLY MET'MAP TEAM :

Programmazione e sviluppo : Alexandra Zaïnal
Concezione e sviluppo : Baudouin d'Aumeries
Co-Programmazione e sviluppo : Marc-Olivier Méhu
Supporto tecnico e logistico : Manuel Goepfert
Aiuto per la traduzione : Arnaldo La Scala

Contatto : metmap@orbifly.com




FONTI E CREDITI :

   NOAA